sensor_id;sensor_type;location;lat;lon;timestamp;pressure;altitude;pressure_sealevel;temperature;humidity
16190;BME280;41754;51.498;7.540;2023-12-20T00:01:22;100175.03;;;7.39;100.00
16190;BME280;41754;51.498;7.540;2023-12-20T00:03:50;100182.59;;;7.28;100.00
16190;BME280;41754;51.498;7.540;2023-12-20T00:06:18;100180.75;;;7.30;100.00
16190;BME280;41754;51.498;7.540;2023-12-20T00:08:46;100178.19;;;7.29;100.00
16190;BME280;41754;51.498;7.540;2023-12-20T00:11:14;100179.59;;;7.36;100.00
16190;BME280;41754;51.498;7.540;2023-12-20T00:13:44;100179.47;;;7.21;100.00
16190;BME280;41754;51.498;7.540;2023-12-20T00:16:16;100175.66;;;7.27;100.00
16190;BME280;41754;51.498;7.540;2023-12-20T00:18:44;100175.16;;;7.20;100.00
16190;BME280;41754;51.498;7.540;2023-12-20T00:21:12;100178.63;;;7.21;100.00
16190;BME280;41754;51.498;7.540;2023-12-20T00:23:40;100176.16;;;7.18;100.00
16190;BME280;41754;51.498;7.540;2023-12-20T00:26:08;100172.53;;;7.20;100.00
16190;BME280;41754;51.498;7.540;2023-12-20T00:28:36;100168.75;;;7.26;100.00
16190;BME280;41754;51.498;7.540;2023-12-20T00:31:06;100162.44;;;7.30;100.00
16190;BME280;41754;51.498;7.540;2023-12-20T00:33:34;100175.09;;;7.38;100.00
16190;BME280;41754;51.498;7.540;2023-12-20T00:36:02;100175.50;;;7.30;100.00
16190;BME280;41754;51.498;7.540;2023-12-20T00:38:30;100184.03;;;7.18;100.00
16190;BME280;41754;51.498;7.540;2023-12-20T00:40:58;100187.16;;;7.24;100.00
16190;BME280;41754;51.498;7.540;2023-12-20T00:43:26;100187.06;;;7.26;100.00
16190;BME280;41754;51.498;7.540;2023-12-20T00:45:54;100187.41;;;7.20;100.00
16190;BME280;41754;51.498;7.540;2023-12-20T00:48:24;100193.13;;;7.11;100.00
16190;BME280;41754;51.498;7.540;2023-12-20T00:50:53;100191.34;;;7.11;100.00
16190;BME280;41754;51.498;7.540;2023-12-20T00:53:21;100195.81;;;7.09;100.00
16190;BME280;41754;51.498;7.540;2023-12-20T00:55:49;100193.50;;;7.03;100.00
16190;BME280;41754;51.498;7.540;2023-12-20T00:58:17;100199.59;;;7.03;100.00
16190;BME280;41754;51.498;7.540;2023-12-20T01:00:45;100204.97;;;7.00;100.00
16190;BME280;41754;51.498;7.540;2023-12-20T01:03:13;100203.59;;;6.93;100.00
16190;BME280;41754;51.498;7.540;2023-12-20T01:05:43;100204.84;;;6.86;100.00
16190;BME280;41754;51.498;7.540;2023-12-20T01:08:11;100207.47;;;6.86;100.00
16190;BME280;41754;51.498;7.540;2023-12-20T01:10:39;100198.78;;;6.85;100.00
16190;BME280;41754;51.498;7.540;2023-12-20T01:13:07;100222.91;;;6.73;100.00
16190;BME280;41754;51.498;7.540;2023-12-20T01:15:35;100226.53;;;6.71;99.45
16190;BME280;41754;51.498;7.540;2023-12-20T01:18:04;100225.47;;;6.75;99.68
16190;BME280;41754;51.498;7.540;2023-12-20T01:20:32;100222.22;;;6.69;99.22
16190;BME280;41754;51.498;7.540;2023-12-20T01:23:01;100220.53;;;6.68;97.99
16190;BME280;41754;51.498;7.540;2023-12-20T01:25:29;100218.03;;;6.67;98.09
16190;BME280;41754;51.498;7.540;2023-12-20T01:27:57;100230.06;;;6.69;99.32
16190;BME280;41754;51.498;7.540;2023-12-20T01:30:25;100221.47;;;6.67;98.70
16190;BME280;41754;51.498;7.540;2023-12-20T01:32:53;100234.69;;;6.64;98.63
16190;BME280;41754;51.498;7.540;2023-12-20T01:35:22;100227.84;;;6.62;98.60
16190;BME280;41754;51.498;7.540;2023-12-20T01:37:50;100239.91;;;6.64;99.07
16190;BME280;41754;51.498;7.540;2023-12-20T01:40:19;100237.91;;;6.69;98.13
16190;BME280;41754;51.498;7.540;2023-12-20T01:42:47;100239.47;;;6.74;97.55
16190;BME280;41754;51.498;7.540;2023-12-20T01:45:15;100239.38;;;6.75;96.46
16190;BME280;41754;51.498;7.540;2023-12-20T01:47:43;100239.78;;;6.67;96.21
16190;BME280;41754;51.498;7.540;2023-12-20T01:50:12;100240.81;;;6.63;95.90
16190;BME280;41754;51.498;7.540;2023-12-20T01:52:41;100231.31;;;6.62;96.29
16190;BME280;41754;51.498;7.540;2023-12-20T01:55:09;100232.53;;;6.73;95.55
16190;BME280;41754;51.498;7.540;2023-12-20T01:57:42;100229.16;;;6.71;95.50
16190;BME280;41754;51.498;7.540;2023-12-20T02:00:12;100230.16;;;6.50;96.59
16190;BME280;41754;51.498;7.540;2023-12-20T02:02:41;100231.06;;;6.49;95.52
16190;BME280;41754;51.498;7.540;2023-12-20T02:05:09;100233.47;;;6.54;94.73
16190;BME280;41754;51.498;7.540;2023-12-20T02:07:37;100237.44;;;6.44;94.58
16190;BME280;41754;51.498;7.540;2023-12-20T02:10:06;100234.97;;;6.41;94.61
16190;BME280;41754;51.498;7.540;2023-12-20T02:12:34;100233.75;;;6.30;94.73
16190;BME280;41754;51.498;7.540;2023-12-20T02:15:04;100234.94;;;6.23;95.61
16190;BME280;41754;51.498;7.540;2023-12-20T02:17:33;100235.47;;;6.30;94.27
16190;BME280;41754;51.498;7.540;2023-12-20T02:20:02;100226.19;;;6.24;93.75
16190;BME280;41754;51.498;7.540;2023-12-20T02:22:32;100226.88;;;6.28;93.89
16190;BME280;41754;51.498;7.540;2023-12-20T02:25:00;100229.88;;;6.20;93.70
16190;BME280;41754;51.498;7.540;2023-12-20T02:27:28;100236.78;;;6.21;94.00
16190;BME280;41754;51.498;7.540;2023-12-20T02:29:57;100227.19;;;6.22;94.31
16190;BME280;41754;51.498;7.540;2023-12-20T02:32:25;100219.44;;;6.20;94.51
16190;BME280;41754;51.498;7.540;2023-12-20T02:34:54;100232.50;;;6.20;94.66
16190;BME280;41754;51.498;7.540;2023-12-20T02:37:23;100223.66;;;6.23;94.08
16190;BME280;41754;51.498;7.540;2023-12-20T02:39:52;100231.28;;;6.27;94.22
16190;BME280;41754;51.498;7.540;2023-12-20T02:42:20;100227.41;;;6.17;94.83
16190;BME280;41754;51.498;7.540;2023-12-20T02:44:48;100233.25;;;6.22;94.46
16190;BME280;41754;51.498;7.540;2023-12-20T02:47:16;100234.69;;;6.10;94.76
16190;BME280;41754;51.498;7.540;2023-12-20T02:49:44;100233.25;;;6.22;94.82
16190;BME280;41754;51.498;7.540;2023-12-20T02:52:12;100223.56;;;6.07;95.12
16190;BME280;41754;51.498;7.540;2023-12-20T02:54:40;100222.97;;;6.19;94.42
16190;BME280;41754;51.498;7.540;2023-12-20T02:57:10;100218.88;;;6.13;93.52
16190;BME280;41754;51.498;7.540;2023-12-20T02:59:38;100220.56;;;6.15;94.04
16190;BME280;41754;51.498;7.540;2023-12-20T03:02:06;100226.78;;;6.12;93.50
16190;BME280;41754;51.498;7.540;2023-12-20T03:04:35;100230.09;;;6.16;94.40
16190;BME280;41754;51.498;7.540;2023-12-20T03:07:03;100226.41;;;6.20;93.54
16190;BME280;41754;51.498;7.540;2023-12-20T03:09:31;100229.56;;;6.26;92.75
16190;BME280;41754;51.498;7.540;2023-12-20T03:12:21;100207.84;;;6.26;92.63
16190;BME280;41754;51.498;7.540;2023-12-20T03:14:49;100217.47;;;6.06;93.99
16190;BME280;41754;51.498;7.540;2023-12-20T03:17:17;100214.78;;;6.08;94.38
16190;BME280;41754;51.498;7.540;2023-12-20T03:19:45;100217.09;;;6.14;93.50
16190;BME280;41754;51.498;7.540;2023-12-20T03:22:13;100215.13;;;6.19;93.23
16190;BME280;41754;51.498;7.540;2023-12-20T03:24:41;100207.56;;;6.13;93.68
16190;BME280;41754;51.498;7.540;2023-12-20T03:27:09;100222.47;;;6.11;93.52
16190;BME280;41754;51.498;7.540;2023-12-20T03:29:39;100219.03;;;6.10;93.24
16190;BME280;41754;51.498;7.540;2023-12-20T03:32:06;100221.09;;;6.21;93.47
16190;BME280;41754;51.498;7.540;2023-12-20T03:34:35;100225.84;;;6.13;94.05
16190;BME280;41754;51.498;7.540;2023-12-20T03:37:03;100222.88;;;6.21;93.62
16190;BME280;41754;51.498;7.540;2023-12-20T03:39:31;100226.72;;;6.13;93.25
16190;BME280;41754;51.498;7.540;2023-12-20T03:41:59;100220.88;;;6.08;92.48
16190;BME280;41754;51.498;7.540;2023-12-20T03:44:27;100216.41;;;6.10;91.65
16190;BME280;41754;51.498;7.540;2023-12-20T03:46:56;100220.16;;;6.05;91.88
16190;BME280;41754;51.498;7.540;2023-12-20T03:49:24;100218.63;;;6.01;91.24
16190;BME280;41754;51.498;7.540;2023-12-20T03:51:53;100222.41;;;5.93;90.40
16190;BME280;41754;51.498;7.540;2023-12-20T03:54:21;100226.66;;;6.15;89.96
16190;BME280;41754;51.498;7.540;2023-12-20T03:56:48;100221.03;;;6.23;90.08
16190;BME280;41754;51.498;7.540;2023-12-20T03:59:17;100222.00;;;6.03;91.24
16190;BME280;41754;51.498;7.540;2023-12-20T04:01:45;100215.19;;;6.18;91.30
16190;BME280;41754;51.498;7.540;2023-12-20T04:04:15;100215.53;;;6.10;92.21
16190;BME280;41754;51.498;7.540;2023-12-20T04:06:43;100223.84;;;6.01;92.75
16190;BME280;41754;51.498;7.540;2023-12-20T04:09:11;100225.03;;;5.93;93.37
16190;BME280;41754;51.498;7.540;2023-12-20T04:11:39;100217.19;;;5.93;93.36
16190;BME280;41754;51.498;7.540;2023-12-20T04:14:08;100213.78;;;5.91;93.33
16190;BME280;41754;51.498;7.540;2023-12-20T04:16:36;100219.31;;;6.04;93.02
16190;BME280;41754;51.498;7.540;2023-12-20T04:19:05;100220.47;;;5.99;93.28
16190;BME280;41754;51.498;7.540;2023-12-20T04:21:35;100220.31;;;6.02;92.61
16190;BME280;41754;51.498;7.540;2023-12-20T04:24:03;100215.53;;;6.10;92.81
16190;BME280;41754;51.498;7.540;2023-12-20T04:26:31;100212.50;;;6.19;92.70
16190;BME280;41754;51.498;7.540;2023-12-20T04:28:59;100208.16;;;6.01;93.09
16190;BME280;41754;51.498;7.540;2023-12-20T04:31:27;100214.50;;;6.14;92.98
16190;BME280;41754;51.498;7.540;2023-12-20T04:33:55;100207.88;;;6.07;92.42
16190;BME280;41754;51.498;7.540;2023-12-20T04:36:23;100212.16;;;6.08;92.79
16190;BME280;41754;51.498;7.540;2023-12-20T04:38:53;100216.19;;;6.15;92.11
16190;BME280;41754;51.498;7.540;2023-12-20T04:41:21;100211.13;;;6.12;91.93
16190;BME280;41754;51.498;7.540;2023-12-20T04:43:49;100209.63;;;5.87;93.48
16190;BME280;41754;51.498;7.540;2023-12-20T04:46:16;100220.28;;;5.83;93.37
16190;BME280;41754;51.498;7.540;2023-12-20T04:48:45;100213.31;;;5.83;93.38
16190;BME280;41754;51.498;7.540;2023-12-20T04:51:13;100220.50;;;5.78;93.13
16190;BME280;41754;51.498;7.540;2023-12-20T04:53:41;100234.41;;;5.79;93.66
16190;BME280;41754;51.498;7.540;2023-12-20T04:56:10;100228.03;;;5.84;92.58
16190;BME280;41754;51.498;7.540;2023-12-20T04:58:40;100220.84;;;5.89;92.63
16190;BME280;41754;51.498;7.540;2023-12-20T05:01:08;100215.47;;;5.92;92.89
16190;BME280;41754;51.498;7.540;2023-12-20T05:03:37;100222.41;;;5.93;92.85
16190;BME280;41754;51.498;7.540;2023-12-20T05:06:05;100217.88;;;5.78;93.18
16190;BME280;41754;51.498;7.540;2023-12-20T05:08:33;100215.22;;;5.99;92.68
16190;BME280;41754;51.498;7.540;2023-12-20T05:11:01;100215.75;;;5.86;93.25
16190;BME280;41754;51.498;7.540;2023-12-20T05:13:31;100214.94;;;5.86;93.75
16190;BME280;41754;51.498;7.540;2023-12-20T05:16:10;100220.28;;;5.83;93.63
16190;BME280;41754;51.498;7.540;2023-12-20T05:18:40;100234.53;;;5.94;91.89
16190;BME280;41754;51.498;7.540;2023-12-20T05:21:08;100223.06;;;5.99;91.63
16190;BME280;41754;51.498;7.540;2023-12-20T05:23:36;100213.94;;;5.88;91.65
16190;BME280;41754;51.498;7.540;2023-12-20T05:26:04;100209.50;;;5.90;91.62
16190;BME280;41754;51.498;7.540;2023-12-20T05:28:34;100220.97;;;5.86;92.39
16190;BME280;41754;51.498;7.540;2023-12-20T05:31:02;100226.22;;;5.67;92.48
16190;BME280;41754;51.498;7.540;2023-12-20T05:33:31;100225.56;;;5.81;92.29
16190;BME280;41754;51.498;7.540;2023-12-20T05:35:58;100220.22;;;5.84;91.64
16190;BME280;41754;51.498;7.540;2023-12-20T05:38:27;100213.81;;;5.72;91.88
16190;BME280;41754;51.498;7.540;2023-12-20T05:40:55;100208.72;;;5.69;92.07
16190;BME280;41754;51.498;7.540;2023-12-20T05:43:22;100208.00;;;5.85;91.99
16190;BME280;41754;51.498;7.540;2023-12-20T05:45:52;100202.38;;;5.75;92.61
16190;BME280;41754;51.498;7.540;2023-12-20T05:48:20;100213.53;;;5.79;92.61
16190;BME280;41754;51.498;7.540;2023-12-20T05:50:48;100216.47;;;5.71;92.90
16190;BME280;41754;51.498;7.540;2023-12-20T05:53:16;100209.41;;;5.73;92.99
16190;BME280;41754;51.498;7.540;2023-12-20T05:55:44;100217.03;;;5.78;92.52
16190;BME280;41754;51.498;7.540;2023-12-20T05:58:12;100208.72;;;5.88;92.39
16190;BME280;41754;51.498;7.540;2023-12-20T06:00:40;100213.09;;;5.88;92.52
16190;BME280;41754;51.498;7.540;2023-12-20T06:03:09;100209.69;;;5.86;92.26
16190;BME280;41754;51.498;7.540;2023-12-20T06:05:37;100216.47;;;5.71;93.55
16190;BME280;41754;51.498;7.540;2023-12-20T06:08:05;100214.50;;;5.76;92.83
16190;BME280;41754;51.498;7.540;2023-12-20T06:10:33;100214.66;;;5.73;93.78
16190;BME280;41754;51.498;7.540;2023-12-20T06:13:01;100208.09;;;5.83;93.77
16190;BME280;41754;51.498;7.540;2023-12-20T06:15:31;100215.06;;;5.83;93.08
16190;BME280;41754;51.498;7.540;2023-12-20T06:17:58;100213.66;;;5.75;92.78
16190;BME280;41754;51.498;7.540;2023-12-20T06:20:28;100221.16;;;5.83;93.02
16190;BME280;41754;51.498;7.540;2023-12-20T06:22:56;100214.50;;;5.95;92.18
16190;BME280;41754;51.498;7.540;2023-12-20T06:25:24;100205.94;;;5.91;92.59
16190;BME280;41754;51.498;7.540;2023-12-20T06:27:52;100203.03;;;5.80;93.12
16190;BME280;41754;51.498;7.540;2023-12-20T06:30:20;100214.66;;;5.92;92.72
16190;BME280;41754;51.498;7.540;2023-12-20T06:32:48;100226.50;;;5.80;92.13
16190;BME280;41754;51.498;7.540;2023-12-20T06:35:16;100223.09;;;5.78;92.97
16190;BME280;41754;51.498;7.540;2023-12-20T06:37:45;100217.59;;;5.84;93.20
16190;BME280;41754;51.498;7.540;2023-12-20T06:40:13;100211.84;;;5.97;92.40
16190;BME280;41754;51.498;7.540;2023-12-20T06:42:44;100215.63;;;5.89;91.70
16190;BME280;41754;51.498;7.540;2023-12-20T06:45:27;100221.16;;;5.83;92.26
16190;BME280;41754;51.498;7.540;2023-12-20T06:47:55;100209.78;;;5.84;92.32
16190;BME280;41754;51.498;7.540;2023-12-20T06:50:23;100211.09;;;5.93;92.21
16190;BME280;41754;51.498;7.540;2023-12-20T06:52:53;100215.63;;;5.89;92.13
16190;BME280;41754;51.498;7.540;2023-12-20T06:55:21;100215.63;;;5.89;92.48
16190;BME280;41754;51.498;7.540;2023-12-20T06:57:49;100214.56;;;5.93;92.04
16190;BME280;41754;51.498;7.540;2023-12-20T07:00:18;100218.47;;;6.04;91.65
16190;BME280;41754;51.498;7.540;2023-12-20T07:02:47;100226.22;;;5.86;91.55
16190;BME280;41754;51.498;7.540;2023-12-20T07:05:16;100208.03;;;6.04;91.59
16190;BME280;41754;51.498;7.540;2023-12-20T07:07:46;100207.47;;;5.97;91.39
16190;BME280;41754;51.498;7.540;2023-12-20T07:10:16;100209.56;;;5.89;91.67
16190;BME280;41754;51.498;7.540;2023-12-20T07:12:44;100225.50;;;5.83;91.83
16190;BME280;41754;51.498;7.540;2023-12-20T07:15:13;100215.16;;;6.00;90.93
16190;BME280;41754;51.498;7.540;2023-12-20T07:17:40;100216.06;;;5.99;90.66
16190;BME280;41754;51.498;7.540;2023-12-20T07:20:10;100218.69;;;5.99;90.17
16190;BME280;41754;51.498;7.540;2023-12-20T07:22:38;100216.22;;;5.77;91.34
16190;BME280;41754;51.498;7.540;2023-12-20T07:25:07;100211.16;;;5.91;90.75
16190;BME280;41754;51.498;7.540;2023-12-20T07:27:36;100222.25;;;5.78;91.46
16190;BME280;41754;51.498;7.540;2023-12-20T07:30:07;100213.16;;;5.86;90.92
16190;BME280;41754;51.498;7.540;2023-12-20T07:32:35;100215.94;;;5.83;90.79
16190;BME280;41754;51.498;7.540;2023-12-20T07:35:04;100226.84;;;5.91;90.08
16190;BME280;41754;51.498;7.540;2023-12-20T07:37:32;100220.97;;;5.86;90.17
16190;BME280;41754;51.498;7.540;2023-12-20T07:40:01;100235.19;;;6.00;89.48
16190;BME280;41754;51.498;7.540;2023-12-20T07:42:30;100224.25;;;6.10;89.02
16190;BME280;41754;51.498;7.540;2023-12-20T07:44:59;100227.34;;;6.00;89.54
16190;BME280;41754;51.498;7.540;2023-12-20T07:47:27;100229.34;;;6.13;88.22
16190;BME280;41754;51.498;7.540;2023-12-20T07:49:55;100223.88;;;6.18;87.97
16190;BME280;41754;51.498;7.540;2023-12-20T07:52:23;100230.66;;;6.03;88.49
16190;BME280;41754;51.498;7.540;2023-12-20T07:54:52;100221.00;;;6.05;87.90
16190;BME280;41754;51.498;7.540;2023-12-20T07:57:20;100218.09;;;6.11;88.22
16190;BME280;41754;51.498;7.540;2023-12-20T07:59:48;100214.03;;;6.23;87.41
16190;BME280;41754;51.498;7.540;2023-12-20T08:02:18;100220.78;;;6.10;87.40
16190;BME280;41754;51.498;7.540;2023-12-20T08:04:45;100231.16;;;6.11;88.02
16190;BME280;41754;51.498;7.540;2023-12-20T08:07:13;100227.28;;;6.20;87.36
16190;BME280;41754;51.498;7.540;2023-12-20T08:09:42;100222.75;;;6.05;87.63
16190;BME280;41754;51.498;7.540;2023-12-20T08:12:10;100214.91;;;6.05;88.46
16190;BME280;41754;51.498;7.540;2023-12-20T08:14:38;100217.41;;;6.08;87.90
16190;BME280;41754;51.498;7.540;2023-12-20T08:17:06;100213.25;;;6.04;87.94
16190;BME280;41754;51.498;7.540;2023-12-20T08:19:35;100222.06;;;6.20;87.16
16190;BME280;41754;51.498;7.540;2023-12-20T08:22:03;100222.34;;;6.14;87.36
16190;BME280;41754;51.498;7.540;2023-12-20T08:24:31;100221.25;;;6.18;87.81
16190;BME280;41754;51.498;7.540;2023-12-20T08:26:59;100217.72;;;6.19;87.03
16190;BME280;41754;51.498;7.540;2023-12-20T08:29:27;100204.81;;;6.16;87.87
16190;BME280;41754;51.498;7.540;2023-12-20T08:31:55;100214.22;;;6.20;87.27
16190;BME280;41754;51.498;7.540;2023-12-20T08:34:23;100218.34;;;6.24;87.30
16190;BME280;41754;51.498;7.540;2023-12-20T08:36:53;100218.81;;;6.32;87.42
16190;BME280;41754;51.498;7.540;2023-12-20T08:39:21;100212.22;;;6.25;86.93
16190;BME280;41754;51.498;7.540;2023-12-20T08:41:49;100208.81;;;6.23;87.01
16190;BME280;41754;51.498;7.540;2023-12-20T08:44:17;100218.97;;;6.29;87.11
16190;BME280;41754;51.498;7.540;2023-12-20T08:46:45;100210.59;;;6.23;87.25
16190;BME280;41754;51.498;7.540;2023-12-20T08:49:13;100220.28;;;6.38;87.07
16190;BME280;41754;51.498;7.540;2023-12-20T08:51:41;100225.84;;;6.32;86.92
16190;BME280;41754;51.498;7.540;2023-12-20T08:54:10;100218.81;;;6.32;87.17
16190;BME280;41754;51.498;7.540;2023-12-20T08:56:39;100212.53;;;6.37;87.42
16190;BME280;41754;51.498;7.540;2023-12-20T08:59:07;100206.84;;;6.28;86.70
16190;BME280;41754;51.498;7.540;2023-12-20T09:01:36;100202.53;;;6.45;86.52
16190;BME280;41754;51.498;7.540;2023-12-20T09:04:04;100209.63;;;6.60;85.83
16190;BME280;41754;51.498;7.540;2023-12-20T09:06:33;100210.09;;;6.34;86.39
16190;BME280;41754;51.498;7.540;2023-12-20T09:09:01;100199.94;;;6.45;86.29
16190;BME280;41754;51.498;7.540;2023-12-20T09:11:30;100202.00;;;6.38;86.75
16190;BME280;41754;51.498;7.540;2023-12-20T09:13:58;100202.38;;;6.48;86.08
16190;BME280;41754;51.498;7.540;2023-12-20T09:16:26;100207.91;;;6.42;86.54
16190;BME280;41754;51.498;7.540;2023-12-20T09:18:54;100206.94;;;6.44;86.33
16190;BME280;41754;51.498;7.540;2023-12-20T09:21:22;100202.69;;;6.42;86.39
16190;BME280;41754;51.498;7.540;2023-12-20T09:23:51;100192.63;;;6.52;85.73
16190;BME280;41754;51.498;7.540;2023-12-20T09:26:19;100188.28;;;6.52;86.48
16190;BME280;41754;51.498;7.540;2023-12-20T09:28:48;100189.78;;;6.56;85.70
16190;BME280;41754;51.498;7.540;2023-12-20T09:31:16;100191.50;;;6.57;85.61
16190;BME280;41754;51.498;7.540;2023-12-20T09:33:44;100187.00;;;6.42;85.57
16190;BME280;41754;51.498;7.540;2023-12-20T09:36:12;100195.31;;;6.50;85.97
16190;BME280;41754;51.498;7.540;2023-12-20T09:38:41;100209.63;;;6.60;85.04
16190;BME280;41754;51.498;7.540;2023-12-20T09:41:12;100197.19;;;6.65;84.98
16190;BME280;41754;51.498;7.540;2023-12-20T09:43:41;100199.00;;;6.63;84.81
16190;BME280;41754;51.498;7.540;2023-12-20T09:46:12;100200.38;;;6.53;85.24
16190;BME280;41754;51.498;7.540;2023-12-20T09:48:44;100196.38;;;6.63;84.86
16190;BME280;41754;51.498;7.540;2023-12-20T09:51:12;100184.25;;;6.62;85.19
16190;BME280;41754;51.498;7.540;2023-12-20T09:53:41;100178.28;;;6.60;84.53
16190;BME280;41754;51.498;7.540;2023-12-20T09:56:10;100179.16;;;6.77;84.54
16190;BME280;41754;51.498;7.540;2023-12-20T09:58:39;100176.09;;;6.68;84.03
16190;BME280;41754;51.498;7.540;2023-12-20T10:01:07;100182.03;;;6.55;84.78
16190;BME280;41754;51.498;7.540;2023-12-20T10:03:39;100148.72;;;6.76;83.24
16190;BME280;41754;51.498;7.540;2023-12-20T10:06:09;100193.47;;;6.69;83.83
16190;BME280;41754;51.498;7.540;2023-12-20T10:08:38;100177.44;;;6.93;83.00
16190;BME280;41754;51.498;7.540;2023-12-20T10:11:06;100186.94;;;7.12;82.96
16190;BME280;41754;51.498;7.540;2023-12-20T10:13:39;100176.88;;;6.71;83.26
16190;BME280;41754;51.498;7.540;2023-12-20T10:16:07;100179.75;;;6.82;82.68
16190;BME280;41754;51.498;7.540;2023-12-20T10:18:37;100171.72;;;6.69;84.22
16190;BME280;41754;51.498;7.540;2023-12-20T10:21:06;100170.69;;;6.89;83.18
16190;BME280;41754;51.498;7.540;2023-12-20T10:23:36;100175.25;;;6.85;82.82
16190;BME280;41754;51.498;7.540;2023-12-20T10:26:05;100170.94;;;6.84;82.74
16190;BME280;41754;51.498;7.540;2023-12-20T10:28:34;100171.16;;;6.80;83.44
16190;BME280;41754;51.498;7.540;2023-12-20T10:31:02;100161.16;;;6.88;83.20
16190;BME280;41754;51.498;7.540;2023-12-20T10:33:31;100164.38;;;6.93;82.44
16190;BME280;41754;51.498;7.540;2023-12-20T10:36:01;100155.94;;;6.88;82.48
16190;BME280;41754;51.498;7.540;2023-12-20T10:38:30;100161.03;;;6.74;83.83
16190;BME280;41754;51.498;7.540;2023-12-20T10:40:58;100161.59;;;6.96;83.02
16190;BME280;41754;51.498;7.540;2023-12-20T10:43:27;100166.88;;;6.79;84.44
16190;BME280;41754;51.498;7.540;2023-12-20T10:45:57;100156.91;;;7.03;83.77
16190;BME280;41754;51.498;7.540;2023-12-20T10:48:25;100161.03;;;6.56;84.88
16190;BME280;41754;51.498;7.540;2023-12-20T10:50:57;100150.41;;;6.77;85.61
16190;BME280;41754;51.498;7.540;2023-12-20T10:53:27;100157.03;;;6.84;85.23
16190;BME280;41754;51.498;7.540;2023-12-20T10:55:55;100155.00;;;6.89;84.43
16190;BME280;41754;51.498;7.540;2023-12-20T10:58:25;100150.25;;;6.80;84.77
16190;BME280;41754;51.498;7.540;2023-12-20T11:01:00;100164.78;;;6.85;84.93
16190;BME280;41754;51.498;7.540;2023-12-20T11:03:32;100153.91;;;6.93;84.68
16190;BME280;41754;51.498;7.540;2023-12-20T11:06:09;100151.59;;;6.87;85.24
16190;BME280;41754;51.498;7.540;2023-12-20T11:08:48;100152.56;;;6.86;85.09
16190;BME280;41754;51.498;7.540;2023-12-20T11:11:23;100148.19;;;6.69;85.28
16190;BME280;41754;51.498;7.540;2023-12-20T11:13:57;100156.25;;;6.82;85.15
16190;BME280;41754;51.498;7.540;2023-12-20T11:16:26;100162.84;;;6.89;84.87
16190;BME280;41754;51.498;7.540;2023-12-20T11:19:07;100155.25;;;6.84;85.05
16190;BME280;41754;51.498;7.540;2023-12-20T11:21:34;100150.25;;;6.80;85.67
16190;BME280;41754;51.498;7.540;2023-12-20T11:24:05;100154.84;;;6.92;85.63
16190;BME280;41754;51.498;7.540;2023-12-20T11:26:33;100148.56;;;6.79;85.38
16190;BME280;41754;51.498;7.540;2023-12-20T11:29:29;100139.06;;;6.94;84.80
16190;BME280;41754;51.498;7.540;2023-12-20T11:31:59;100143.50;;;6.76;85.69
16190;BME280;41754;51.498;7.540;2023-12-20T11:34:27;100140.53;;;6.99;85.15
16190;BME280;41754;51.498;7.540;2023-12-20T11:37:00;100144.94;;;7.15;83.92
16190;BME280;41754;51.498;7.540;2023-12-20T11:39:30;100136.97;;;7.00;84.72
16190;BME280;41754;51.498;7.540;2023-12-20T11:42:04;100141.31;;;7.33;84.02
16190;BME280;41754;51.498;7.540;2023-12-20T11:44:33;100125.31;;;7.39;83.11
16190;BME280;41754;51.498;7.540;2023-12-20T11:47:01;100142.69;;;7.40;83.39
16190;BME280;41754;51.498;7.540;2023-12-20T11:49:29;100131.38;;;7.24;83.08
16190;BME280;41754;51.498;7.540;2023-12-20T11:51:57;100129.63;;;7.07;84.70
16190;BME280;41754;51.498;7.540;2023-12-20T11:54:27;100137.69;;;7.20;83.79
16190;BME280;41754;51.498;7.540;2023-12-20T11:56:56;100141.13;;;7.20;85.13
16190;BME280;41754;51.498;7.540;2023-12-20T11:59:24;100126.19;;;7.06;85.76
16190;BME280;41754;51.498;7.540;2023-12-20T12:01:52;100130.47;;;6.92;86.62
16190;BME280;41754;51.498;7.540;2023-12-20T12:04:23;100126.03;;;7.10;86.02
16190;BME280;41754;51.498;7.540;2023-12-20T12:06:51;100125.00;;;6.96;87.02
16190;BME280;41754;51.498;7.540;2023-12-20T12:09:19;100122.44;;;6.79;87.50
16190;BME280;41754;51.498;7.540;2023-12-20T12:11:46;100130.34;;;6.77;87.73
16190;BME280;41754;51.498;7.540;2023-12-20T12:14:16;100111.75;;;6.66;88.89
16190;BME280;41754;51.498;7.540;2023-12-20T12:16:45;100116.03;;;6.84;88.06
16190;BME280;41754;51.498;7.540;2023-12-20T12:19:23;100098.19;;;6.75;88.57
16190;BME280;41754;51.498;7.540;2023-12-20T12:22:04;100089.84;;;6.68;88.39
16190;BME280;41754;51.498;7.540;2023-12-20T12:24:32;100091.06;;;6.79;88.64
16190;BME280;41754;51.498;7.540;2023-12-20T12:26:59;100097.50;;;6.89;87.68
16190;BME280;41754;51.498;7.540;2023-12-20T12:29:29;100097.81;;;6.83;88.25
16190;BME280;41754;51.498;7.540;2023-12-20T12:31:56;100107.06;;;6.73;88.55
16190;BME280;41754;51.498;7.540;2023-12-20T12:34:27;100095.78;;;6.55;91.47
16190;BME280;41754;51.498;7.540;2023-12-20T12:36:55;100092.50;;;6.51;91.41
16190;BME280;41754;51.498;7.540;2023-12-20T12:39:24;100086.97;;;6.40;91.98
16190;BME280;41754;51.498;7.540;2023-12-20T12:41:52;100095.28;;;6.30;92.86
16190;BME280;41754;51.498;7.540;2023-12-20T12:44:20;100091.97;;;6.44;92.29
16190;BME280;41754;51.498;7.540;2023-12-20T12:46:51;100090.19;;;6.45;92.67
16190;BME280;41754;51.498;7.540;2023-12-20T12:49:20;100086.06;;;6.41;92.61
16190;BME280;41754;51.498;7.540;2023-12-20T12:51:49;100087.53;;;6.29;94.33
16190;BME280;41754;51.498;7.540;2023-12-20T12:54:16;100084.19;;;6.43;93.44
16190;BME280;41754;51.498;7.540;2023-12-20T12:56:44;100076.34;;;6.43;93.51
16190;BME280;41754;51.498;7.540;2023-12-20T12:59:14;100078.84;;;6.62;92.11
16190;BME280;41754;51.498;7.540;2023-12-20T13:01:41;100063.16;;;6.62;92.93
16190;BME280;41754;51.498;7.540;2023-12-20T13:04:10;100058.00;;;6.78;92.71
16190;BME280;41754;51.498;7.540;2023-12-20T13:06:38;100064.25;;;6.91;91.87
16190;BME280;41754;51.498;7.540;2023-12-20T13:09:07;100064.41;;;6.72;91.40